createdAt,value
2023-12-08T00:01:59.627Z,98290.88
2023-12-08T00:04:27.374Z,98288.81
2023-12-08T00:06:53.910Z,98289.84
2023-12-08T00:09:20.249Z,98286.63
2023-12-08T00:11:46.780Z,98269.81
2023-12-08T00:14:13.125Z,98274.34
2023-12-08T00:16:42.294Z,98269.66
2023-12-08T00:19:10.164Z,98267.00
2023-12-08T00:21:36.545Z,98265.66
2023-12-08T00:24:02.935Z,98264.44
2023-12-08T00:26:29.986Z,98262.69
2023-12-08T00:28:56.326Z,98246.16
2023-12-08T00:31:22.662Z,98243.63
2023-12-08T00:33:49.127Z,98243.25
2023-12-08T00:36:17.880Z,98247.81
2023-12-08T00:38:45.742Z,98245.34
2023-12-08T00:41:12.107Z,98237.34
2023-12-08T00:43:38.435Z,98227.66
2023-12-08T00:46:05.113Z,98222.88
2023-12-08T00:48:31.579Z,98215.34
2023-12-08T00:50:58.109Z,98217.50
2023-12-08T00:53:24.790Z,98207.44
2023-12-08T00:55:51.113Z,98205.00
2023-12-08T00:58:17.997Z,98208.03
2023-12-08T01:00:44.885Z,98207.75
2023-12-08T01:03:11.795Z,98207.31
2023-12-08T01:05:38.356Z,98210.84
2023-12-08T01:08:04.955Z,98211.00
2023-12-08T01:10:31.254Z,98211.66
2023-12-08T01:12:57.901Z,98217.09
2023-12-08T01:15:24.202Z,98211.66
2023-12-08T01:17:50.602Z,98204.88
2023-12-08T01:20:17.103Z,98210.97
2023-12-08T01:22:43.410Z,98208.66
2023-12-08T01:25:09.809Z,98206.59
2023-12-08T01:27:36.322Z,98197.91
2023-12-08T01:30:03.341Z,98198.97
2023-12-08T01:32:29.778Z,98203.22
2023-12-08T01:34:56.185Z,98192.72
2023-12-08T01:37:22.659Z,98186.03
2023-12-08T01:39:51.931Z,98182.28
2023-12-08T01:42:20.018Z,98181.44
2023-12-08T01:44:46.465Z,98185.22
2023-12-08T01:47:13.385Z,98183.28
2023-12-08T01:49:43.152Z,98187.78
2023-12-08T01:52:10.645Z,98187.78
2023-12-08T01:54:37.034Z,98188.34
2023-12-08T01:57:03.588Z,98185.03
2023-12-08T01:59:31.127Z,98178.53
2023-12-08T02:01:59.252Z,98186.97
2023-12-08T02:04:26.291Z,98183.72
2023-12-08T02:06:52.643Z,98174.94
2023-12-08T02:09:19.020Z,98168.19
2023-12-08T02:11:45.441Z,98164.63
2023-12-08T02:14:14.885Z,98163.97
2023-12-08T02:16:44.191Z,98151.91
2023-12-08T02:19:13.381Z,98150.03
2023-12-08T02:21:40.526Z,98141.75
2023-12-08T02:24:07.218Z,98143.44
2023-12-08T02:26:33.779Z,98150.19
2023-12-08T02:29:00.256Z,98145.28
2023-12-08T02:31:30.019Z,98139.06
2023-12-08T02:33:56.455Z,98146.34
2023-12-08T02:36:26.839Z,98139.38
2023-12-08T02:38:53.875Z,98129.09
2023-12-08T02:41:20.495Z,98135.59
2023-12-08T02:43:46.805Z,98127.50
2023-12-08T02:46:13.154Z,98131.69
2023-12-08T02:48:39.637Z,98129.69
2023-12-08T02:51:09.314Z,98127.31
2023-12-08T02:53:35.854Z,98126.25
2023-12-08T02:56:02.266Z,98130.13
2023-12-08T02:58:31.601Z,98117.06
2023-12-08T03:01:00.241Z,98115.00
2023-12-08T03:03:26.795Z,98115.53
2023-12-08T03:05:53.262Z,98117.03
2023-12-08T03:08:19.613Z,98112.81
2023-12-08T03:10:46.029Z,98098.63
2023-12-08T03:13:12.510Z,98090.13
2023-12-08T03:15:38.957Z,98082.16
2023-12-08T03:18:05.531Z,98080.63
2023-12-08T03:20:31.963Z,98081.25
2023-12-08T03:22:58.323Z,98079.66
2023-12-08T03:25:24.701Z,98074.13
2023-12-08T03:27:51.066Z,98070.53
2023-12-08T03:30:17.625Z,98071.09
2023-12-08T03:32:44.383Z,98072.47
2023-12-08T03:35:10.804Z,98073.66
2023-12-08T03:37:37.207Z,98055.19
2023-12-08T03:40:03.992Z,98059.66
2023-12-08T03:42:36.001Z,98054.19
2023-12-08T03:45:02.616Z,98050.22
2023-12-08T03:47:29.708Z,98048.66
2023-12-08T03:49:56.291Z,98053.66
2023-12-08T03:52:22.642Z,98057.16
2023-12-08T03:54:48.952Z,98053.81
2023-12-08T03:57:15.298Z,98041.47
2023-12-08T03:59:44.814Z,98039.41
2023-12-08T04:02:11.232Z,98044.88
2023-12-08T04:04:37.638Z,98039.41
2023-12-08T04:07:04.103Z,98026.91
2023-12-08T04:09:31.147Z,98008.81
2023-12-08T04:11:57.607Z,98004.13
2023-12-08T04:14:24.041Z,97997.91
2023-12-08T04:16:53.766Z,98000.84
2023-12-08T04:19:20.805Z,97980.63
2023-12-08T04:21:47.168Z,97966.91
2023-12-08T04:24:13.655Z,97954.78
2023-12-08T04:26:46.444Z,97945.22
2023-12-08T04:29:12.933Z,97947.72
2023-12-08T04:31:39.281Z,97957.38
2023-12-08T04:34:05.821Z,97965.88
2023-12-08T04:36:32.582Z,97974.19
2023-12-08T04:38:58.915Z,97967.72
2023-12-08T04:41:25.286Z,97967.72
2023-12-08T04:43:51.675Z,97971.53
2023-12-08T04:46:19.266Z,97980.53
2023-12-08T04:48:45.770Z,97980.25
2023-12-08T04:51:12.221Z,97975.97
2023-12-08T04:53:38.640Z,97966.31
2023-12-08T04:56:05.672Z,97953.78
2023-12-08T04:58:32.028Z,97953.03
2023-12-08T05:00:58.408Z,97957.75
2023-12-08T05:03:25.019Z,97963.03
2023-12-08T05:05:51.616Z,97958.50
2023-12-08T05:08:17.981Z,97950.38
2023-12-08T05:10:44.297Z,97950.84
2023-12-08T05:13:10.702Z,97959.66
2023-12-08T05:15:37.051Z,97958.94
2023-12-08T05:18:04.285Z,97953.16
2023-12-08T05:20:30.737Z,97952.88
2023-12-08T05:22:57.082Z,97945.41
2023-12-08T05:25:23.432Z,97957.66
2023-12-08T05:27:50.289Z,97954.72
2023-12-08T05:30:16.793Z,97950.41
2023-12-08T05:32:43.576Z,97948.00
2023-12-08T05:35:10.014Z,97941.00
2023-12-08T05:37:36.362Z,97941.53
2023-12-08T05:40:02.704Z,97960.00
2023-12-08T05:42:29.038Z,97972.81
2023-12-08T05:44:55.442Z,97980.38
2023-12-08T05:47:21.863Z,97984.47
2023-12-08T05:49:48.442Z,97981.91
2023-12-08T05:52:15.301Z,97971.41
2023-12-08T05:54:41.628Z,97968.25
2023-12-08T05:57:08.500Z,97964.00
2023-12-08T05:59:34.930Z,97958.81
2023-12-08T06:02:01.299Z,97950.06
2023-12-08T06:04:27.625Z,97954.31
2023-12-08T06:06:54.836Z,97943.84
2023-12-08T06:09:21.279Z,97944.09
2023-12-08T06:11:47.648Z,97928.34
2023-12-08T06:14:13.968Z,97922.88
2023-12-08T06:16:40.371Z,97917.13
2023-12-08T06:19:06.859Z,97917.63
2023-12-08T06:21:33.349Z,97921.59
2023-12-08T06:24:01.200Z,97931.28
2023-12-08T06:26:29.708Z,97919.78
2023-12-08T06:28:56.060Z,97915.28
2023-12-08T06:31:22.358Z,97911.09
2023-12-08T06:34:01.195Z,97917.59
2023-12-08T06:36:34.952Z,97917.09
2023-12-08T06:39:01.502Z,97920.09
2023-12-08T06:41:28.161Z,97924.91
2023-12-08T06:43:54.662Z,97924.75
2023-12-08T06:46:21.118Z,97926.38
2023-12-08T06:48:47.520Z,97920.22
2023-12-08T06:51:13.949Z,97917.72
2023-12-08T06:53:40.304Z,97926.69
2023-12-08T06:56:07.383Z,97927.19
2023-12-08T06:58:34.532Z,97933.44
2023-12-08T07:01:00.966Z,97937.19
2023-12-08T07:03:27.383Z,97933.78
2023-12-08T07:05:53.792Z,97930.00
2023-12-08T07:08:20.106Z,97929.53
2023-12-08T07:10:46.461Z,97925.50
2023-12-08T07:13:12.849Z,97917.09
2023-12-08T07:15:39.264Z,97921.53
2023-12-08T07:18:05.668Z,97927.78
2023-12-08T07:20:32.218Z,97922.78
2023-12-08T07:22:58.562Z,97932.03
2023-12-08T07:25:24.984Z,97927.34
2023-12-08T07:27:52.833Z,97924.63
2023-12-08T07:30:19.314Z,97925.16
2023-12-08T07:32:46.010Z,97932.59
2023-12-08T07:35:12.382Z,97920.69
2023-12-08T07:37:39.256Z,97913.69
2023-12-08T07:40:06.350Z,97908.94
2023-12-08T07:42:32.988Z,97907.22
2023-12-08T07:44:59.440Z,97899.16
2023-12-08T07:47:26.129Z,97908.13
2023-12-08T07:49:52.759Z,97906.13
2023-12-08T07:52:19.248Z,97891.66
2023-12-08T07:54:45.672Z,97892.91
2023-12-08T07:57:12.117Z,97890.63
2023-12-08T07:59:38.524Z,97897.00
2023-12-08T08:02:04.878Z,97891.56
2023-12-08T08:04:31.789Z,97897.56
2023-12-08T08:06:58.269Z,97892.09
2023-12-08T08:09:24.660Z,97899.00
2023-12-08T08:11:51.041Z,97896.00
2023-12-08T08:14:17.566Z,97909.53
2023-12-08T08:16:43.942Z,97898.44
2023-12-08T08:19:10.623Z,97902.03
2023-12-08T08:21:37.164Z,97894.44
2023-12-08T08:24:03.640Z,97892.94
2023-12-08T08:26:30.061Z,97882.44
2023-12-08T08:28:56.449Z,97881.38
2023-12-08T08:31:22.996Z,97883.03
2023-12-08T08:33:49.972Z,97890.47
2023-12-08T08:36:16.533Z,97889.31
2023-12-08T08:38:43.072Z,97881.06
2023-12-08T08:41:09.449Z,97897.47
2023-12-08T08:43:35.764Z,97904.88
2023-12-08T08:46:02.104Z,97907.78
2023-12-08T08:48:28.645Z,97895.66
2023-12-08T08:50:55.092Z,97887.88
2023-12-08T08:53:21.943Z,97897.88
2023-12-08T08:55:48.382Z,97902.22
2023-12-08T08:58:14.698Z,97900.34
2023-12-08T09:00:41.349Z,97905.72
2023-12-08T09:03:07.855Z,97907.56
2023-12-08T09:05:37.358Z,97909.75
2023-12-08T09:08:03.800Z,97920.69
2023-12-08T09:10:30.128Z,97927.31
2023-12-08T09:12:56.468Z,97919.19
2023-12-08T09:15:22.904Z,97924.34
2023-12-08T09:17:49.489Z,97924.34
2023-12-08T09:20:16.031Z,97922.75
2023-12-08T09:22:45.038Z,97912.91
2023-12-08T09:25:11.372Z,97915.59
2023-12-08T09:27:38.028Z,97903.97
2023-12-08T09:30:05.296Z,97897.47
2023-12-08T09:32:32.337Z,97902.19
2023-12-08T09:34:58.785Z,97896.72
2023-12-08T09:37:34.384Z,97895.31
2023-12-08T09:40:03.235Z,97893.06
2023-12-08T09:42:35.592Z,97889.47
2023-12-08T09:45:02.254Z,97882.13
2023-12-08T09:47:29.557Z,97874.47
2023-12-08T09:49:56.605Z,97871.56
2023-12-08T09:52:22.998Z,97869.22
2023-12-08T09:54:49.477Z,97884.63
2023-12-08T09:57:17.490Z,97870.56
2023-12-08T09:59:44.521Z,97864.16
2023-12-08T10:02:10.996Z,97861.81
2023-12-08T10:04:37.406Z,97858.03
2023-12-08T10:07:06.913Z,97852.09
2023-12-08T10:09:33.303Z,97853.19
2023-12-08T10:12:00.181Z,97846.25
2023-12-08T10:14:27.458Z,97845.16
2023-12-08T10:16:53.810Z,97837.56
2023-12-08T10:19:21.661Z,97828.31
2023-12-08T10:22:01.644Z,97823.13
2023-12-08T10:24:31.651Z,97820.00
2023-12-08T10:26:59.455Z,97800.06
2023-12-08T10:29:32.472Z,97790.28
2023-12-08T10:31:59.181Z,97799.00
2023-12-08T10:34:25.876Z,97807.75
2023-12-08T10:36:53.166Z,97800.25
2023-12-08T10:39:19.985Z,97789.88
2023-12-08T10:41:49.774Z,97787.00
2023-12-08T10:44:19.008Z,97775.72
2023-12-08T10:46:45.584Z,97768.53
2023-12-08T10:49:12.172Z,97769.28
2023-12-08T10:51:39.435Z,97770.56
2023-12-08T10:54:06.100Z,97753.84
2023-12-08T10:56:32.482Z,97756.34
2023-12-08T10:59:00.229Z,97755.72
2023-12-08T11:01:27.373Z,97754.88
2023-12-08T11:04:03.802Z,97752.63
2023-12-08T11:06:39.751Z,97754.69
2023-12-08T11:09:07.680Z,97763.69
2023-12-08T11:11:35.733Z,97766.94
2023-12-08T11:14:06.089Z,97754.69
2023-12-08T11:16:36.204Z,97749.25
2023-12-08T11:19:03.040Z,97756.09
2023-12-08T11:21:30.805Z,97745.69
2023-12-08T11:23:57.216Z,97745.22
2023-12-08T11:26:42.185Z,97753.31
2023-12-08T11:29:16.633Z,97742.84
2023-12-08T11:31:51.522Z,97755.72
2023-12-08T11:34:26.042Z,97740.53
2023-12-08T11:36:52.532Z,97741.81
2023-12-08T11:39:38.281Z,97742.56
2023-12-08T11:42:09.676Z,97745.22
2023-12-08T11:44:36.774Z,97733.78
2023-12-08T11:47:03.405Z,97733.84
2023-12-08T11:49:30.552Z,97721.34
2023-12-08T11:52:06.562Z,97729.00
2023-12-08T11:55:06.420Z,97725.78
2023-12-08T11:57:39.065Z,97728.34
2023-12-08T12:00:12.629Z,97725.09
2023-12-08T12:02:41.198Z,97727.69
2023-12-08T12:05:08.297Z,97728.16
2023-12-08T12:07:34.993Z,97729.25
2023-12-08T12:10:03.936Z,97727.97
2023-12-08T12:12:32.030Z,97724.72
2023-12-08T12:15:01.116Z,97736.78
2023-12-08T12:17:30.559Z,97755.16
2023-12-08T12:19:57.239Z,97773.44
2023-12-08T12:22:23.708Z,97771.38
2023-12-08T12:24:50.074Z,97762.22
2023-12-08T12:27:16.593Z,97781.22
2023-12-08T12:29:43.634Z,97774.81
2023-12-08T12:32:10.236Z,97782.81
2023-12-08T12:34:37.771Z,97775.09
2023-12-08T12:37:04.490Z,97785.00
2023-12-08T12:39:31.037Z,97780.94
2023-12-08T12:42:03.952Z,97770.56
2023-12-08T12:44:43.290Z,97785.00
2023-12-08T12:47:10.659Z,97781.75
2023-12-08T12:49:38.742Z,97779.72
2023-12-08T12:52:19.917Z,97768.88
2023-12-08T12:54:46.240Z,97773.72
2023-12-08T12:57:12.651Z,97782.50
2023-12-08T12:59:52.998Z,97781.13
2023-12-08T13:02:27.334Z,97772.59
2023-12-08T13:04:54.234Z,97776.56
2023-12-08T13:07:23.501Z,97779.53
2023-12-08T13:09:52.381Z,97779.41
2023-12-08T13:12:19.164Z,97799.28
2023-12-08T13:14:45.531Z,97784.06
2023-12-08T13:17:11.905Z,97792.88
2023-12-08T13:19:38.347Z,97789.28
2023-12-08T13:22:04.769Z,97790.44
2023-12-08T13:24:31.191Z,97795.22
2023-12-08T13:26:57.604Z,97793.34
2023-12-08T13:29:23.991Z,97798.75
2023-12-08T13:31:50.367Z,97807.38
2023-12-08T13:34:16.963Z,97805.78
2023-12-08T13:36:43.375Z,97799.50
2023-12-08T13:39:11.389Z,97795.88
2023-12-08T13:41:37.784Z,97787.50
2023-12-08T13:44:04.283Z,97789.91
2023-12-08T13:46:30.652Z,97799.00
2023-12-08T13:48:57.178Z,97788.19
2023-12-08T13:51:38.261Z,97793.84
2023-12-08T13:54:06.429Z,97801.16
2023-12-08T13:56:33.075Z,97805.25
2023-12-08T13:58:59.480Z,97820.16
2023-12-08T14:01:26.046Z,97824.97
2023-12-08T14:03:53.338Z,97824.97
2023-12-08T14:06:21.080Z,97812.53
2023-12-08T14:08:47.733Z,97803.81
2023-12-08T14:11:14.187Z,97802.63
2023-12-08T14:13:40.945Z,97793.94
2023-12-08T14:16:07.601Z,97799.00
2023-12-08T14:18:34.178Z,97796.13
2023-12-08T14:21:03.570Z,97802.47
2023-12-08T14:23:30.013Z,97795.28
2023-12-08T14:25:56.450Z,97788.94
2023-12-08T14:28:22.888Z,97786.50
2023-12-08T14:30:49.334Z,97783.91
2023-12-08T14:33:15.878Z,97782.72
2023-12-08T14:35:42.528Z,97772.22
2023-12-08T14:38:08.991Z,97779.19
2023-12-08T14:40:35.712Z,97772.28
2023-12-08T14:43:02.152Z,97773.44
2023-12-08T14:45:29.100Z,97772.16
2023-12-08T14:47:55.719Z,97769.66
2023-12-08T14:50:22.146Z,97767.16
2023-12-08T14:52:48.477Z,97757.22
2023-12-08T14:55:16.708Z,97761.84
2023-12-08T14:57:44.072Z,97756.94
2023-12-08T15:00:11.595Z,97753.25
2023-12-08T15:02:38.062Z,97761.53
2023-12-08T15:05:05.519Z,97771.84
2023-12-08T15:07:31.998Z,97773.16
2023-12-08T15:09:58.328Z,97772.75
2023-12-08T15:12:24.766Z,97760.75
2023-12-08T15:14:51.327Z,97764.34
2023-12-08T15:17:17.705Z,97768.03
2023-12-08T15:19:44.056Z,97765.09
2023-12-08T15:22:10.490Z,97760.81
2023-12-08T15:24:37.402Z,97767.97
2023-12-08T15:27:03.983Z,97770.19
2023-12-08T15:29:30.388Z,97764.34
2023-12-08T15:31:56.716Z,97766.03
2023-12-08T15:34:23.142Z,97761.47
2023-12-08T15:36:50.895Z,97753.53
2023-12-08T15:39:17.478Z,97761.09
2023-12-08T15:41:44.263Z,97777.78
2023-12-08T15:44:10.654Z,97767.22
2023-12-08T15:46:37.525Z,97776.22
2023-12-08T15:49:04.634Z,97774.56
2023-12-08T15:51:31.486Z,97769.91
2023-12-08T15:53:59.108Z,97766.09
2023-12-08T15:56:25.882Z,97761.03
2023-12-08T15:58:52.363Z,97773.97
2023-12-08T16:01:19.544Z,97776.03
2023-12-08T16:03:46.054Z,97765.28
2023-12-08T16:06:13.393Z,97771.47
2023-12-08T16:08:41.111Z,97777.53
2023-12-08T16:11:07.454Z,97778.63
2023-12-08T16:13:34.449Z,97772.22
2023-12-08T16:16:04.998Z,97779.19
2023-12-08T16:18:32.579Z,97778.34
2023-12-08T16:20:58.994Z,97782.81
2023-12-08T16:23:25.349Z,97787.25
2023-12-08T16:25:51.643Z,97793.84
2023-12-08T16:28:17.998Z,97793.00
2023-12-08T16:30:44.313Z,97793.28
2023-12-08T16:33:10.718Z,97784.56
2023-12-08T16:35:37.055Z,97794.56
2023-12-08T16:38:04.478Z,97791.69
2023-12-08T16:40:30.781Z,97788.72
2023-12-08T16:42:57.092Z,97790.78
2023-12-08T16:45:23.562Z,97790.97
2023-12-08T16:47:50.033Z,97792.91
2023-12-08T16:50:16.753Z,97797.31
2023-12-08T16:52:43.730Z,97794.47
2023-12-08T16:55:10.173Z,97797.91
2023-12-08T16:57:36.661Z,97794.81
2023-12-08T17:00:04.898Z,97795.88
2023-12-08T17:02:31.257Z,97803.06
2023-12-08T17:04:57.971Z,97793.94
2023-12-08T17:07:24.428Z,97792.53
2023-12-08T17:09:50.789Z,97791.13
2023-12-08T17:12:17.147Z,97791.50
2023-12-08T17:14:43.524Z,97792.88
2023-12-08T17:17:09.922Z,97797.50
2023-12-08T17:19:36.307Z,97786.00
2023-12-08T17:22:02.695Z,97793.06
2023-12-08T17:24:29.039Z,97798.88
2023-12-08T17:26:56.441Z,97797.22
2023-12-08T17:29:22.861Z,97806.47
2023-12-08T17:31:49.347Z,97802.97
2023-12-08T17:34:21.598Z,97806.75
2023-12-08T17:36:49.267Z,97812.78
2023-12-08T17:39:17.643Z,97807.03
2023-12-08T17:41:44.294Z,97810.47
2023-12-08T17:44:10.832Z,97816.75
2023-12-08T17:46:40.443Z,97804.66
2023-12-08T17:49:07.084Z,97811.19
2023-12-08T17:51:33.620Z,97815.81
2023-12-08T17:54:00.006Z,97817.56
2023-12-08T17:56:26.322Z,97810.06
2023-12-08T17:58:53.566Z,97809.03
2023-12-08T18:01:19.997Z,97812.84
2023-12-08T18:03:46.382Z,97807.81
2023-12-08T18:06:18.963Z,97822.00
2023-12-08T18:08:45.362Z,97812.91
2023-12-08T18:11:21.680Z,97817.56
2023-12-08T18:13:47.989Z,97826.16
2023-12-08T18:16:21.003Z,97836.28
2023-12-08T18:18:47.400Z,97826.19
2023-12-08T18:21:21.717Z,97833.78
2023-12-08T18:23:48.089Z,97836.28
2023-12-08T18:26:14.521Z,97844.75
2023-12-08T18:29:07.075Z,97846.09
2023-12-08T18:31:28.326Z,97846.84
2023-12-08T18:33:55.810Z,97843.81
2023-12-08T18:36:26.570Z,97834.16
2023-12-08T18:38:53.562Z,97843.19
2023-12-08T18:41:20.048Z,97843.88
2023-12-08T18:43:46.917Z,97849.63
2023-12-08T18:46:13.920Z,97848.94
2023-12-08T18:48:42.188Z,97852.19
2023-12-08T18:51:08.847Z,97856.41
2023-12-08T18:53:35.318Z,97850.69
2023-12-08T18:56:04.981Z,97869.22
2023-12-08T18:58:31.861Z,97862.19
2023-12-08T19:00:58.283Z,97868.97
2023-12-08T19:03:24.770Z,97871.72
2023-12-08T19:05:51.202Z,97867.03
2023-12-08T19:08:17.801Z,97873.22
2023-12-08T19:10:45.355Z,97870.38
2023-12-08T19:13:11.763Z,97860.91
2023-12-08T19:15:38.151Z,97883.44
2023-12-08T19:18:04.613Z,97864.44
2023-12-08T19:20:31.139Z,97880.94
2023-12-08T19:22:58.208Z,97876.94
2023-12-08T19:25:24.576Z,97885.25
2023-12-08T19:27:50.863Z,97878.69
2023-12-08T19:30:17.320Z,97877.41
2023-12-08T19:32:44.276Z,97871.72
2023-12-08T19:35:11.050Z,97878.22
2023-12-08T19:37:37.415Z,97883.50
2023-12-08T19:40:03.848Z,97884.44
2023-12-08T19:42:31.903Z,97885.38
2023-12-08T19:44:58.566Z,97882.00
2023-12-08T19:47:25.153Z,97887.88
2023-12-08T19:49:51.896Z,97882.28
2023-12-08T19:52:19.514Z,97885.19
2023-12-08T19:54:45.843Z,97888.88
2023-12-08T19:57:13.197Z,97887.94
2023-12-08T19:59:39.564Z,97882.13
2023-12-08T20:02:05.883Z,97891.84
2023-12-08T20:04:32.197Z,97889.91
2023-12-08T20:06:58.576Z,97895.38
2023-12-08T20:09:24.963Z,97893.44
2023-12-08T20:11:51.389Z,97890.44
2023-12-08T20:14:17.875Z,97895.81
2023-12-08T20:16:44.325Z,97892.00
2023-12-08T20:19:11.226Z,97911.75
2023-12-08T20:21:37.660Z,97890.81
2023-12-08T20:24:04.185Z,97894.78
2023-12-08T20:26:30.574Z,97894.50
2023-12-08T20:28:56.936Z,97886.81
2023-12-08T20:31:23.619Z,97892.28
2023-12-08T20:33:50.238Z,97886.47
2023-12-08T20:36:16.755Z,97885.44
2023-12-08T20:38:43.542Z,97882.56
2023-12-08T20:41:09.853Z,97888.69
2023-12-08T20:43:36.208Z,97892.69
2023-12-08T20:46:03.672Z,97898.09
2023-12-08T20:48:30.394Z,97893.34
2023-12-08T20:50:57.659Z,97889.16
2023-12-08T20:53:24.332Z,97897.28
2023-12-08T20:55:50.737Z,97894.19
2023-12-08T20:58:17.067Z,97894.44
2023-12-08T21:00:45.481Z,97892.13
2023-12-08T21:03:12.277Z,97892.69
2023-12-08T21:05:39.039Z,97904.25
2023-12-08T21:08:05.570Z,97902.09
2023-12-08T21:10:32.329Z,97911.56
2023-12-08T21:12:58.949Z,97903.50
2023-12-08T21:15:25.328Z,97905.34
2023-12-08T21:17:54.946Z,97909.50
2023-12-08T21:20:21.348Z,97906.19
2023-12-08T21:22:47.684Z,97908.03
2023-12-08T21:25:14.405Z,97912.22
2023-12-08T21:27:41.400Z,97913.72
2023-12-08T21:30:09.198Z,97915.47
2023-12-08T21:32:36.333Z,97914.94
2023-12-08T21:35:02.878Z,97911.22
2023-12-08T21:37:29.324Z,97913.97
2023-12-08T21:39:56.112Z,97914.66
2023-12-08T21:42:23.029Z,97921.63
2023-12-08T21:44:49.626Z,97913.63
2023-12-08T21:47:16.032Z,97918.38
2023-12-08T21:49:42.501Z,97913.97
2023-12-08T21:52:08.897Z,97915.94
2023-12-08T21:54:35.426Z,97923.25
2023-12-08T21:57:01.795Z,97921.75
2023-12-08T21:59:28.769Z,97926.56
2023-12-08T22:01:55.217Z,97926.22
2023-12-08T22:04:21.582Z,97924.47
2023-12-08T22:06:47.962Z,97929.47
2023-12-08T22:09:14.819Z,97932.25
2023-12-08T22:11:41.167Z,97938.13
2023-12-08T22:14:08.102Z,97938.66
2023-12-08T22:16:34.444Z,97944.47
2023-12-08T22:19:01.019Z,97951.72
2023-12-08T22:21:27.570Z,97942.72
2023-12-08T22:23:54.165Z,97946.78
2023-12-08T22:26:20.586Z,97950.28
2023-12-08T22:28:47.759Z,97955.59
2023-12-08T22:31:14.730Z,97942.66
2023-12-08T22:33:41.208Z,97947.59
2023-12-08T22:36:08.592Z,97959.38
2023-12-08T22:38:34.932Z,97952.91
2023-12-08T22:41:01.258Z,97957.13
2023-12-08T22:43:27.561Z,97951.84
2023-12-08T22:45:53.946Z,97957.66
2023-12-08T22:48:20.418Z,97955.09
2023-12-08T22:50:50.360Z,97957.53
2023-12-08T22:53:18.189Z,97951.28
2023-12-08T22:55:44.737Z,97961.53
2023-12-08T22:58:11.243Z,97957.47
2023-12-08T23:00:37.735Z,97953.94
2023-12-08T23:03:04.315Z,97953.34
2023-12-08T23:05:31.701Z,97951.03
2023-12-08T23:07:58.151Z,97955.78
2023-12-08T23:10:24.510Z,97956.78
2023-12-08T23:12:50.865Z,97953.81
2023-12-08T23:15:17.238Z,97961.78
2023-12-08T23:17:43.702Z,97960.25
2023-12-08T23:20:10.297Z,97959.22
2023-12-08T23:22:36.669Z,97961.78
2023-12-08T23:25:03.025Z,97962.34
2023-12-08T23:27:29.509Z,97968.41
2023-12-08T23:29:55.896Z,97972.53
2023-12-08T23:32:22.415Z,97961.53
2023-12-08T23:34:48.904Z,97965.78
2023-12-08T23:37:15.462Z,97959.22
2023-12-08T23:39:42.000Z,97968.22
2023-12-08T23:42:08.402Z,97967.94
2023-12-08T23:44:35.015Z,97975.44
2023-12-08T23:47:01.406Z,97974.78
2023-12-08T23:49:28.051Z,97976.19
2023-12-08T23:51:54.517Z,97988.25
2023-12-08T23:54:20.895Z,97984.91
2023-12-08T23:56:47.256Z,97981.66
2023-12-08T23:59:13.890Z,97981.66
